createdAt,value
2019-01-04T00:00:22.134Z,12.63
2019-01-04T00:02:51.015Z,11.50
2019-01-04T00:05:19.903Z,12.17
2019-01-04T00:07:48.805Z,11.50
2019-01-04T00:10:17.663Z,12.37
2019-01-04T00:12:46.532Z,12.07
2019-01-04T00:15:15.372Z,11.87
2019-01-04T00:17:44.307Z,10.63
2019-01-04T00:20:13.196Z,11.27
2019-01-04T00:22:42.036Z,11.17
2019-01-04T00:25:11.025Z,11.10
2019-01-04T00:27:39.974Z,12.27
2019-01-04T00:30:10.492Z,12.17
2019-01-04T00:32:39.424Z,12.00
2019-01-04T00:35:08.250Z,11.93
2019-01-04T00:37:37.060Z,11.70
2019-01-04T00:40:07.619Z,12.10
2019-01-04T00:42:36.429Z,10.43
2019-01-04T00:45:05.571Z,10.90
2019-01-04T00:47:34.451Z,11.80
2019-01-04T00:50:03.562Z,12.97
2019-01-04T00:52:32.440Z,10.90
2019-01-04T00:55:25.862Z,13.43
2019-01-04T00:58:36.302Z,14.30
2019-01-04T01:01:40.993Z,12.70
2019-01-04T01:04:43.609Z,13.33
2019-01-04T01:07:53.722Z,12.43
2019-01-04T01:11:06.930Z,14.50
2019-01-04T01:14:19.599Z,13.50
2019-01-04T01:17:18.986Z,11.53
2019-01-04T01:20:02.928Z,12.07
2019-01-04T01:23:07.309Z,13.30
2019-01-04T01:26:17.752Z,11.50
2019-01-04T01:29:27.375Z,12.20
2019-01-04T01:31:56.183Z,12.10
2019-01-04T01:35:10.430Z,11.90
2019-01-04T01:38:19.226Z,10.97
2019-01-04T01:41:25.068Z,10.93
2019-01-04T01:44:19.381Z,12.00
2019-01-04T01:46:59.627Z,12.10
2019-01-04T01:50:07.931Z,12.10
2019-01-04T01:52:44.320Z,12.90
2019-01-04T01:55:13.076Z,13.33
2019-01-04T01:57:41.837Z,13.53
2019-01-04T02:00:10.579Z,11.50
2019-01-04T02:02:40.673Z,12.57
2019-01-04T02:05:09.466Z,15.23
2019-01-04T02:07:38.417Z,13.50
2019-01-04T02:10:08.715Z,14.60
2019-01-04T02:12:37.741Z,15.60
2019-01-04T02:15:07.350Z,14.73
2019-01-04T02:17:37.344Z,14.87
2019-01-04T02:20:06.964Z,16.17
2019-01-04T02:22:35.746Z,15.93
2019-01-04T02:25:04.886Z,15.03
2019-01-04T02:27:33.748Z,16.20
2019-01-04T02:30:02.655Z,15.70
2019-01-04T02:32:31.517Z,14.20
2019-01-04T02:35:00.341Z,13.70
2019-01-04T02:37:29.156Z,15.60
2019-01-04T02:39:57.947Z,14.50
2019-01-04T02:42:26.696Z,14.30
2019-01-04T02:44:55.515Z,14.10
2019-01-04T02:47:24.450Z,12.87
2019-01-04T02:49:53.276Z,13.30
2019-01-04T02:52:22.107Z,13.93
2019-01-04T02:54:50.931Z,14.27
2019-01-04T02:57:19.713Z,12.17
2019-01-04T02:59:48.598Z,13.67
2019-01-04T03:02:17.689Z,12.47
2019-01-04T03:04:46.539Z,13.20
2019-01-04T03:07:16.483Z,13.63
2019-01-04T03:09:45.333Z,13.47
2019-01-04T03:12:14.099Z,13.20
2019-01-04T03:14:42.872Z,14.70
2019-01-04T03:17:11.635Z,14.00
2019-01-04T03:19:40.491Z,11.90
2019-01-04T03:22:09.273Z,14.97
2019-01-04T03:24:38.127Z,13.07
2019-01-04T03:27:07.015Z,14.00
2019-01-04T03:29:35.782Z,13.57
2019-01-04T03:32:04.618Z,12.83
2019-01-04T03:34:33.394Z,13.43
2019-01-04T03:37:02.215Z,13.67
2019-01-04T03:39:30.954Z,13.67
2019-01-04T03:41:59.713Z,14.33
2019-01-04T03:44:28.516Z,13.23
2019-01-04T03:46:57.382Z,12.90
2019-01-04T03:49:26.160Z,13.73
2019-01-04T03:51:54.901Z,12.50
2019-01-04T03:54:25.195Z,12.40
2019-01-04T03:56:54.122Z,13.33
2019-01-04T03:59:22.935Z,13.70
2019-01-04T04:01:51.799Z,12.33
2019-01-04T04:04:20.538Z,13.10
2019-01-04T04:06:49.329Z,11.77
2019-01-04T04:09:18.090Z,12.07
2019-01-04T04:11:46.951Z,12.60
2019-01-04T04:14:15.803Z,11.60
2019-01-04T04:16:44.559Z,12.13
2019-01-04T04:19:13.387Z,13.30
2019-01-04T04:21:42.271Z,13.33
2019-01-04T04:24:11.033Z,13.10
2019-01-04T04:26:39.917Z,13.23
2019-01-04T04:29:08.771Z,12.20
2019-01-04T04:31:37.575Z,12.50
2019-01-04T04:34:07.898Z,13.23
2019-01-04T04:36:36.699Z,12.70
2019-01-04T04:39:07.162Z,12.60
2019-01-04T04:41:35.986Z,13.47
2019-01-04T04:44:04.884Z,14.23
2019-01-04T04:46:33.749Z,13.33
2019-01-04T04:49:02.541Z,14.40
2019-01-04T04:51:33.295Z,14.30
2019-01-04T04:54:01.816Z,12.67
2019-01-04T04:56:30.586Z,14.90
2019-01-04T04:58:59.348Z,12.43
2019-01-04T05:01:28.163Z,15.50
2019-01-04T05:03:56.910Z,13.50
2019-01-04T05:06:25.808Z,13.50
2019-01-04T05:08:54.660Z,15.13
2019-01-04T05:11:23.436Z,14.50
2019-01-04T05:13:54.006Z,12.50
2019-01-04T05:16:24.276Z,13.00
2019-01-04T05:18:53.072Z,11.20
2019-01-04T05:21:21.840Z,13.10
2019-01-04T05:23:50.622Z,12.43
2019-01-04T05:26:19.379Z,13.33
2019-01-04T05:28:48.123Z,11.70
2019-01-04T05:31:16.956Z,12.70
2019-01-04T05:33:45.783Z,13.23
2019-01-04T05:36:14.521Z,13.00
2019-01-04T05:38:43.288Z,13.57
2019-01-04T05:41:12.047Z,12.07
2019-01-04T05:43:40.859Z,12.00
2019-01-04T05:46:09.651Z,11.37
2019-01-04T05:48:38.503Z,11.73
2019-01-04T05:51:07.331Z,11.67
2019-01-04T05:53:36.102Z,13.00
2019-01-04T05:56:04.950Z,11.20
2019-01-04T05:58:33.826Z,12.13
2019-01-04T06:01:02.660Z,11.57
2019-01-04T06:03:31.514Z,12.43
2019-01-04T06:06:00.461Z,12.77
2019-01-04T06:08:29.339Z,14.00
2019-01-04T06:10:58.206Z,13.13
2019-01-04T06:13:26.950Z,13.77
2019-01-04T06:15:57.292Z,12.77
2019-01-04T06:18:26.097Z,15.23
2019-01-04T06:20:54.963Z,16.20
2019-01-04T06:23:23.880Z,16.57
2019-01-04T06:25:53.095Z,13.20
2019-01-04T06:28:21.878Z,13.50
2019-01-04T06:30:50.639Z,14.07
2019-01-04T06:33:19.407Z,15.43
2019-01-04T06:35:48.281Z,13.00
2019-01-04T06:38:17.062Z,13.80
2019-01-04T06:40:45.890Z,12.50
2019-01-04T06:43:14.645Z,13.60
2019-01-04T06:45:43.414Z,12.33
2019-01-04T06:48:12.324Z,13.30
2019-01-04T06:50:44.023Z,14.07
2019-01-04T06:53:12.823Z,15.83
2019-01-04T06:55:56.366Z,14.47
2019-01-04T06:58:26.385Z,14.63
2019-01-04T07:00:55.241Z,14.60
2019-01-04T07:03:24.018Z,12.93
2019-01-04T07:05:53.114Z,24.53
2019-01-04T07:08:22.020Z,15.00
2019-01-04T07:10:50.783Z,14.70
2019-01-04T07:13:19.602Z,21.13
2019-01-04T07:15:48.435Z,17.43
2019-01-04T07:18:17.276Z,19.17
2019-01-04T07:20:46.030Z,19.33
2019-01-04T07:23:14.871Z,17.73
2019-01-04T07:25:43.620Z,18.53
2019-01-04T07:28:12.472Z,17.87
2019-01-04T07:30:41.377Z,18.53
2019-01-04T07:33:10.136Z,17.70
2019-01-04T07:35:38.921Z,17.93
2019-01-04T07:38:07.820Z,17.43
2019-01-04T07:40:36.601Z,16.10
2019-01-04T07:43:05.392Z,17.47
2019-01-04T07:45:35.342Z,12.53
2019-01-04T07:48:04.315Z,15.20
2019-01-04T07:50:33.141Z,15.83
2019-01-04T07:53:02.107Z,16.20
2019-01-04T07:55:31.048Z,16.40
2019-01-04T07:57:59.875Z,14.93
2019-01-04T08:00:28.766Z,14.10
2019-01-04T08:03:07.290Z,12.90
2019-01-04T08:05:36.071Z,12.87
2019-01-04T08:08:04.901Z,13.20
2019-01-04T08:10:33.833Z,14.20
2019-01-04T08:13:02.628Z,11.70
2019-01-04T08:15:31.459Z,14.23
2019-01-04T08:18:02.833Z,14.20
2019-01-04T08:20:31.643Z,14.37
2019-01-04T08:23:00.401Z,15.60
2019-01-04T08:25:29.238Z,14.83
2019-01-04T08:27:58.086Z,15.50
2019-01-04T08:30:26.895Z,13.93
2019-01-04T08:32:55.774Z,16.07
2019-01-04T08:35:24.520Z,16.23
2019-01-04T08:37:53.381Z,15.37
2019-01-04T08:40:22.116Z,12.00
2019-01-04T08:42:51.080Z,11.30
2019-01-04T08:45:19.895Z,14.17
2019-01-04T08:47:48.701Z,15.40
2019-01-04T08:50:17.664Z,15.07
2019-01-04T08:52:46.581Z,15.87
2019-01-04T08:55:34.740Z,16.60
2019-01-04T08:58:03.773Z,16.33
2019-01-04T09:00:32.671Z,15.00
2019-01-04T09:03:01.548Z,19.63
2019-01-04T09:05:30.393Z,15.10
2019-01-04T09:08:00.213Z,16.03
2019-01-04T09:10:29.214Z,17.00
2019-01-04T09:12:58.062Z,15.40
2019-01-04T09:15:26.916Z,14.77
2019-01-04T09:17:56.844Z,13.53
2019-01-04T09:20:25.646Z,15.23
2019-01-04T09:22:54.482Z,14.37
2019-01-04T09:25:23.313Z,13.43
2019-01-04T09:27:52.253Z,15.27
2019-01-04T09:30:20.998Z,13.60
2019-01-04T09:32:49.859Z,15.00
2019-01-04T09:35:18.687Z,24.33
2019-01-04T09:37:49.839Z,18.80
2019-01-04T09:40:18.695Z,16.50
2019-01-04T09:42:48.373Z,24.90
2019-01-04T09:45:17.310Z,15.07
2019-01-04T09:47:46.183Z,15.23
2019-01-04T09:50:14.943Z,27.43
2019-01-04T09:52:43.789Z,14.70
2019-01-04T09:55:12.559Z,15.43
2019-01-04T09:57:41.453Z,24.20
2019-01-04T10:00:13.664Z,15.57
2019-01-04T10:02:42.580Z,14.03
2019-01-04T10:05:11.827Z,13.73
2019-01-04T10:07:40.719Z,13.30
2019-01-04T10:10:11.399Z,15.57
2019-01-04T10:12:40.251Z,13.27
2019-01-04T10:15:15.137Z,17.90
2019-01-04T10:17:44.080Z,19.83
2019-01-04T10:20:12.909Z,15.33
2019-01-04T10:22:41.696Z,14.07
2019-01-04T10:25:10.614Z,15.87
2019-01-04T10:27:39.512Z,13.53
2019-01-04T10:30:09.533Z,13.40
2019-01-04T10:32:38.383Z,17.50
2019-01-04T10:35:10.452Z,12.10
2019-01-04T10:37:38.938Z,9.60
2019-01-04T10:40:10.996Z,10.70
2019-01-04T10:42:38.349Z,11.30
2019-01-04T10:45:07.152Z,9.23
2019-01-04T10:47:35.936Z,7.93
2019-01-04T10:50:05.007Z,15.87
2019-01-04T10:52:35.413Z,10.83
2019-01-04T10:55:04.316Z,6.97
2019-01-04T10:57:33.155Z,6.60
2019-01-04T11:00:03.363Z,6.90
2019-01-04T11:02:32.245Z,6.00
2019-01-04T11:05:01.273Z,6.20
2019-01-04T11:07:30.122Z,7.57
2019-01-04T11:09:59.046Z,3.60
2019-01-04T11:12:27.952Z,3.83
2019-01-04T11:14:56.863Z,3.90
2019-01-04T11:17:25.774Z,4.63
2019-01-04T11:19:54.722Z,6.13
2019-01-04T11:22:51.616Z,5.80
2019-01-04T11:25:56.135Z,4.20
2019-01-04T11:28:33.391Z,4.00
2019-01-04T11:31:10.182Z,3.70
2019-01-04T11:33:54.469Z,3.03
2019-01-04T11:36:51.599Z,3.67
2019-01-04T11:40:25.771Z,3.17
2019-01-04T11:43:25.953Z,3.20
2019-01-04T11:46:20.468Z,3.30
2019-01-04T11:49:28.853Z,3.30
2019-01-04T11:52:22.121Z,3.30
2019-01-04T11:54:50.854Z,3.00
2019-01-04T11:57:19.601Z,3.60
2019-01-04T11:59:48.727Z,3.33
2019-01-04T12:02:17.484Z,4.00
2019-01-04T12:04:46.345Z,3.70
2019-01-04T12:07:16.925Z,4.30
2019-01-04T12:09:45.799Z,4.37
2019-01-04T12:12:14.642Z,5.27
2019-01-04T12:14:43.463Z,5.27
2019-01-04T12:17:14.742Z,5.17
2019-01-04T12:19:43.584Z,5.93
2019-01-04T12:22:12.723Z,5.63
2019-01-04T12:24:41.676Z,5.80
2019-01-04T12:27:10.491Z,4.90
2019-01-04T12:29:39.518Z,5.80
2019-01-04T12:32:08.404Z,5.70
2019-01-04T12:34:38.798Z,6.37
2019-01-04T12:37:07.811Z,7.07
2019-01-04T12:39:36.622Z,6.10
2019-01-04T12:42:05.438Z,5.97
2019-01-04T12:44:34.272Z,6.70
2019-01-04T12:47:03.027Z,7.23
2019-01-04T12:49:32.005Z,6.43
2019-01-04T12:52:01.040Z,7.17
2019-01-04T12:54:29.908Z,5.60
2019-01-04T12:57:00.234Z,6.90
2019-01-04T12:59:30.350Z,7.10
2019-01-04T13:01:59.281Z,8.40
2019-01-04T13:04:29.457Z,6.47
2019-01-04T13:06:58.390Z,9.07
2019-01-04T13:09:27.342Z,9.17
2019-01-04T13:11:56.246Z,8.07
2019-01-04T13:14:25.146Z,7.80
2019-01-04T13:16:54.104Z,9.23
2019-01-04T13:19:25.715Z,9.33
2019-01-04T13:21:53.858Z,6.20
2019-01-04T13:24:22.846Z,8.07
2019-01-04T13:26:51.764Z,7.10
2019-01-04T13:29:20.739Z,7.20
2019-01-04T13:31:49.575Z,9.87
2019-01-04T13:34:18.545Z,10.53
2019-01-04T13:36:47.550Z,8.20
2019-01-04T13:39:16.597Z,7.30
2019-01-04T13:41:45.659Z,7.80
2019-01-04T13:44:14.522Z,8.57
2019-01-04T13:46:43.369Z,9.57
2019-01-04T13:49:12.165Z,9.10
2019-01-04T13:51:40.957Z,7.90
2019-01-04T13:54:09.715Z,7.63
2019-01-04T13:56:38.528Z,9.23
2019-01-04T13:59:07.612Z,10.23
2019-01-04T14:01:36.677Z,7.70
2019-01-04T14:04:05.614Z,9.90
2019-01-04T14:06:34.449Z,8.40
2019-01-04T14:09:04.033Z,8.50
2019-01-04T14:11:32.843Z,8.50
2019-01-04T14:14:01.629Z,8.43
2019-01-04T14:16:30.545Z,8.43
2019-01-04T14:18:59.482Z,9.63
2019-01-04T14:21:28.315Z,8.27
2019-01-04T14:23:58.802Z,12.10
2019-01-04T14:26:27.711Z,9.27
2019-01-04T14:28:56.702Z,9.10
2019-01-04T14:31:25.592Z,23.80
2019-01-04T14:33:54.394Z,12.63
2019-01-04T14:36:23.299Z,10.20
2019-01-04T14:38:52.243Z,10.33
2019-01-04T14:41:23.438Z,9.67
2019-01-04T14:43:52.504Z,8.40
2019-01-04T14:46:21.428Z,7.77
2019-01-04T14:48:50.524Z,9.00
2019-01-04T14:51:19.979Z,8.53
2019-01-04T14:53:48.908Z,7.70
2019-01-04T14:56:18.411Z,7.80
2019-01-04T14:58:47.425Z,8.60
2019-01-04T15:01:16.320Z,8.70
2019-01-04T15:03:45.144Z,9.07
2019-01-04T15:06:14.153Z,8.47
2019-01-04T15:08:44.194Z,10.10
2019-01-04T15:11:13.007Z,10.67
2019-01-04T15:13:41.856Z,7.17
2019-01-04T15:16:10.741Z,9.17
2019-01-04T15:18:39.704Z,11.40
2019-01-04T15:21:08.939Z,9.23
2019-01-04T15:23:37.993Z,9.30
2019-01-04T15:26:06.755Z,8.47
2019-01-04T15:28:35.588Z,10.10
2019-01-04T15:31:04.518Z,9.73
2019-01-04T15:33:33.357Z,8.60
2019-01-04T15:36:02.215Z,9.37
2019-01-04T15:38:36.189Z,10.00
2019-01-04T15:41:01.677Z,9.63
2019-01-04T15:43:30.697Z,10.43
2019-01-04T15:45:59.503Z,10.20
2019-01-04T15:48:28.399Z,12.07
2019-01-04T15:50:57.328Z,11.20
2019-01-04T15:53:26.177Z,12.93
2019-01-04T15:55:55.104Z,11.30
2019-01-04T15:58:23.986Z,12.00
2019-01-04T16:00:52.889Z,12.30
2019-01-04T16:03:21.792Z,14.57
2019-01-04T16:05:50.639Z,14.30
2019-01-04T16:08:19.701Z,14.17
2019-01-04T16:10:48.614Z,14.60
2019-01-04T16:13:17.521Z,13.47
2019-01-04T16:15:46.584Z,13.80
2019-01-04T16:18:15.511Z,13.03
2019-01-04T16:20:44.883Z,14.73
2019-01-04T16:23:13.801Z,15.70
2019-01-04T16:25:42.683Z,15.30
2019-01-04T16:28:11.670Z,14.20
2019-01-04T16:30:40.569Z,17.40
2019-01-04T16:33:10.529Z,14.40
2019-01-04T16:35:39.452Z,14.50
2019-01-04T16:38:08.375Z,17.60
2019-01-04T16:40:37.490Z,37.27
2019-01-04T16:43:06.516Z,21.77
2019-01-04T16:45:35.518Z,22.80
2019-01-04T16:48:04.319Z,15.17
2019-01-04T16:50:33.259Z,14.60
2019-01-04T16:53:02.134Z,13.83
2019-01-04T16:55:31.070Z,15.90
2019-01-04T16:58:00.126Z,15.27
2019-01-04T17:00:28.942Z,14.30
2019-01-04T17:02:57.800Z,14.40
2019-01-04T17:05:26.721Z,13.30
2019-01-04T17:07:55.598Z,12.27
2019-01-04T17:10:25.590Z,12.67
2019-01-04T17:12:54.512Z,12.90
2019-01-04T17:15:23.445Z,14.13
2019-01-04T17:17:52.288Z,11.13
2019-01-04T17:20:21.247Z,14.27
2019-01-04T17:22:50.352Z,16.70
2019-01-04T17:25:19.476Z,11.10
2019-01-04T17:27:48.447Z,13.43
2019-01-04T17:30:17.368Z,15.00
2019-01-04T17:32:46.343Z,11.33
2019-01-04T17:35:15.471Z,13.53
2019-01-04T17:37:44.292Z,15.23
2019-01-04T17:40:13.330Z,19.20
2019-01-04T17:42:42.330Z,17.37
2019-01-04T17:45:11.496Z,13.70
2019-01-04T17:47:40.479Z,14.50
2019-01-04T17:50:09.579Z,14.23
2019-01-04T17:52:38.476Z,12.10
2019-01-04T17:55:07.410Z,11.20
2019-01-04T17:57:36.384Z,11.30
2019-01-04T18:00:06.498Z,13.17
2019-01-04T18:02:35.602Z,13.40
2019-01-04T18:05:04.740Z,13.03
2019-01-04T18:07:33.806Z,11.17
2019-01-04T18:10:02.690Z,13.70
2019-01-04T18:12:31.657Z,13.80
2019-01-04T18:15:00.680Z,13.23
2019-01-04T18:17:32.309Z,15.53
2019-01-04T18:20:01.377Z,16.37
2019-01-04T18:22:30.836Z,14.00
2019-01-04T18:25:00.321Z,14.07
2019-01-04T18:27:29.393Z,17.20
2019-01-04T18:29:58.647Z,15.50
2019-01-04T18:32:27.668Z,20.27
2019-01-04T18:34:57.880Z,17.70
2019-01-04T18:37:27.986Z,13.77
2019-01-04T18:39:56.938Z,12.80
2019-01-04T18:42:25.982Z,13.33
2019-01-04T18:44:55.035Z,11.60
2019-01-04T18:47:24.633Z,17.70
2019-01-04T18:49:53.802Z,14.70
2019-01-04T18:52:22.810Z,14.40
2019-01-04T18:54:51.753Z,11.80
2019-01-04T18:57:20.744Z,13.90
2019-01-04T18:59:49.757Z,13.10
2019-01-04T19:02:19.667Z,19.50
2019-01-04T19:04:48.696Z,14.03
2019-01-04T19:07:20.419Z,14.67
2019-01-04T19:09:49.394Z,11.80
2019-01-04T19:12:18.426Z,11.77
2019-01-04T19:14:47.473Z,12.40
2019-01-04T19:17:16.477Z,13.50
2019-01-04T19:19:46.391Z,11.43
2019-01-04T19:22:15.584Z,11.80
2019-01-04T19:24:44.652Z,15.07
2019-01-04T19:27:13.675Z,11.23
2019-01-04T19:29:42.898Z,12.53
2019-01-04T19:32:12.004Z,13.50
2019-01-04T19:34:41.088Z,12.53
2019-01-04T19:37:10.111Z,11.73
2019-01-04T19:39:39.037Z,10.80
2019-01-04T19:42:08.172Z,9.50
2019-01-04T19:44:37.329Z,10.80
2019-01-04T19:47:07.703Z,8.53
2019-01-04T19:49:37.788Z,11.17
2019-01-04T19:52:06.997Z,10.07
2019-01-04T19:54:36.200Z,10.13
2019-01-04T19:57:05.272Z,10.93
2019-01-04T19:59:34.408Z,10.70
2019-01-04T20:02:06.918Z,9.93
2019-01-04T20:04:36.054Z,10.00
2019-01-04T20:07:53.847Z,10.47
2019-01-04T20:12:06.708Z,9.67
2019-01-04T20:15:21.926Z,10.70
2019-01-04T20:18:21.333Z,10.57
2019-01-04T20:21:07.847Z,12.00
2019-01-04T20:23:53.062Z,11.50
2019-01-04T20:26:53.422Z,10.77
2019-01-04T20:29:44.288Z,11.60
2019-01-04T20:32:35.406Z,12.30
2019-01-04T20:35:31.384Z,11.57
2019-01-04T20:38:37.924Z,11.00
2019-01-04T20:41:34.999Z,11.17
2019-01-04T20:44:15.564Z,12.60
2019-01-04T20:47:03.698Z,10.30
2019-01-04T20:50:07.203Z,16.10
2019-01-04T20:53:04.219Z,13.73
2019-01-04T20:56:04.463Z,10.07
2019-01-04T20:58:43.726Z,13.47
2019-01-04T21:01:34.663Z,13.37
2019-01-04T21:04:21.280Z,15.60
2019-01-04T21:07:04.005Z,14.13
2019-01-04T21:09:58.319Z,14.60
2019-01-04T21:12:55.185Z,13.00
2019-01-04T21:15:55.575Z,11.43
2019-01-04T21:18:52.944Z,12.40
2019-01-04T21:21:39.686Z,12.20
2019-01-04T21:24:20.795Z,13.60
2019-01-04T21:27:04.289Z,13.43
2019-01-04T21:30:04.312Z,13.63
2019-01-04T21:32:52.419Z,32.10
2019-01-04T21:35:39.708Z,52.47
2019-01-04T21:38:36.943Z,32.20
2019-01-04T21:41:40.686Z,14.97
2019-01-04T21:44:32.318Z,14.87
2019-01-04T21:47:22.289Z,15.97
2019-01-04T21:50:28.387Z,17.60
2019-01-04T21:53:16.396Z,13.20
2019-01-04T21:56:00.421Z,16.77
2019-01-04T21:58:47.287Z,18.40
2019-01-04T22:01:52.152Z,17.60
2019-01-04T22:04:40.211Z,17.37
2019-01-04T22:07:26.768Z,19.67
2019-01-04T22:10:13.379Z,19.37
2019-01-04T22:13:01.522Z,18.70
2019-01-04T22:15:55.562Z,19.53
2019-01-04T22:18:44.368Z,23.00
2019-01-04T22:21:44.269Z,21.03
2019-01-04T22:24:35.423Z,20.23
2019-01-04T22:27:26.266Z,21.20
2019-01-04T22:30:20.088Z,27.10
2019-01-04T22:33:06.530Z,24.50
2019-01-04T22:36:00.601Z,21.67
2019-01-04T22:38:52.124Z,24.53
2019-01-04T22:41:38.667Z,21.30
2019-01-04T22:44:41.684Z,23.83
2019-01-04T22:47:23.850Z,20.63
2019-01-04T22:50:10.330Z,20.40
2019-01-04T22:53:13.433Z,19.70
2019-01-04T22:55:59.707Z,18.43
2019-01-04T22:58:50.510Z,20.90
2019-01-04T23:01:36.938Z,19.80
2019-01-04T23:04:27.910Z,22.50
2019-01-04T23:07:14.386Z,18.50
2019-01-04T23:10:00.849Z,21.10
2019-01-04T23:12:47.598Z,18.70
2019-01-04T23:15:50.871Z,17.17
2019-01-04T23:18:29.107Z,20.53
2019-01-04T23:22:09.216Z,18.77
2019-01-04T23:25:01.359Z,18.90
2019-01-04T23:27:47.057Z,18.23
2019-01-04T23:30:37.816Z,17.83
2019-01-04T23:33:24.589Z,18.30
2019-01-04T23:36:11.171Z,18.90
2019-01-04T23:39:12.355Z,18.67
2019-01-04T23:42:09.172Z,17.60
2019-01-04T23:44:55.528Z,20.27
2019-01-04T23:47:52.260Z,19.93
2019-01-04T23:50:38.666Z,17.20
2019-01-04T23:53:35.493Z,19.70
2019-01-04T23:56:26.249Z,22.40
2019-01-04T23:59:12.768Z,19.20
